createdAt,value
2022-09-07T00:00:42.154Z,0
2022-09-07T00:01:45.400Z,0
2022-09-07T00:02:48.893Z,0
2022-09-07T00:04:25.553Z,0
2022-09-07T00:05:29.015Z,0
2022-09-07T00:06:31.837Z,0
2022-09-07T00:08:06.972Z,0
2022-09-07T00:09:10.136Z,0
2022-09-07T00:10:13.168Z,0
2022-09-07T00:11:48.399Z,0
2022-09-07T00:12:51.686Z,0
2022-09-07T00:13:54.657Z,0
2022-09-07T00:15:29.545Z,0
2022-09-07T00:16:33.512Z,0
2022-09-07T00:17:36.797Z,0
2022-09-07T00:19:14.577Z,0
2022-09-07T00:20:17.648Z,0
2022-09-07T00:21:20.460Z,0
2022-09-07T00:22:55.133Z,0
2022-09-07T00:23:58.350Z,0
2022-09-07T00:25:01.323Z,0
2022-09-07T00:26:40.612Z,0
2022-09-07T00:27:43.713Z,0
2022-09-07T00:28:47.007Z,0
2022-09-07T00:30:22.289Z,0
2022-09-07T00:31:26.268Z,0
2022-09-07T00:32:29.305Z,0
2022-09-07T00:34:04.253Z,0
2022-09-07T00:35:07.361Z,0
2022-09-07T00:36:10.310Z,0
2022-09-07T00:37:45.399Z,0
2022-09-07T00:38:48.927Z,0
2022-09-07T00:39:52.232Z,0
2022-09-07T00:41:27.157Z,0
2022-09-07T00:42:30.203Z,0
2022-09-07T00:43:33.107Z,0
2022-09-07T00:45:08.064Z,0
2022-09-07T00:46:11.378Z,0
2022-09-07T00:47:14.754Z,0
2022-09-07T00:48:49.772Z,0
2022-09-07T00:49:52.864Z,0
2022-09-07T00:50:55.856Z,0
2022-09-07T00:52:30.740Z,0
2022-09-07T00:53:33.773Z,0
2022-09-07T00:54:37.020Z,0
2022-09-07T00:56:12.083Z,0
2022-09-07T00:57:15.111Z,0
2022-09-07T00:58:18.239Z,0
2022-09-07T00:59:53.555Z,0
2022-09-07T01:00:40.098Z,0
2022-09-07T01:01:43.877Z,0
2022-09-07T01:02:47.905Z,0
2022-09-07T01:04:23.418Z,0
2022-09-07T01:05:32.067Z,0
2022-09-07T01:06:35.446Z,0
2022-09-07T01:08:10.617Z,0
2022-09-07T01:09:14.126Z,0
2022-09-07T01:10:17.196Z,0
2022-09-07T01:11:52.264Z,0
2022-09-07T01:12:55.521Z,0
2022-09-07T01:13:58.825Z,0
2022-09-07T01:15:33.979Z,0
2022-09-07T01:16:37.774Z,0
2022-09-07T01:17:41.297Z,0
2022-09-07T01:19:16.441Z,0
2022-09-07T01:20:19.832Z,0
2022-09-07T01:21:23.090Z,0
2022-09-07T01:22:58.548Z,0
2022-09-07T01:24:01.658Z,0
2022-09-07T01:25:04.787Z,0
2022-09-07T01:26:40.124Z,0
2022-09-07T01:27:43.320Z,0
2022-09-07T01:28:47.042Z,0
2022-09-07T01:30:22.441Z,0
2022-09-07T01:31:26.363Z,0
2022-09-07T01:32:29.469Z,0
2022-09-07T01:34:04.968Z,0
2022-09-07T01:35:08.191Z,0
2022-09-07T01:36:11.372Z,0
2022-09-07T01:37:46.813Z,0
2022-09-07T01:38:50.212Z,0
2022-09-07T01:39:53.889Z,0
2022-09-07T01:41:29.236Z,0
2022-09-07T01:42:32.209Z,0
2022-09-07T01:43:35.507Z,0
2022-09-07T01:45:10.842Z,0
2022-09-07T01:46:14.550Z,0
2022-09-07T01:47:17.956Z,0
2022-09-07T01:48:53.548Z,0
2022-09-07T01:49:56.960Z,0
2022-09-07T01:51:00.343Z,0
2022-09-07T01:52:35.924Z,0
2022-09-07T01:53:39.156Z,0
2022-09-07T01:54:42.326Z,0
2022-09-07T01:56:17.871Z,0
2022-09-07T01:57:21.379Z,0
2022-09-07T01:58:24.789Z,0
2022-09-07T02:00:00.270Z,0
2022-09-07T02:00:40.500Z,0
2022-09-07T02:01:44.233Z,0
2022-09-07T02:02:47.754Z,0
2022-09-07T02:04:22.840Z,0
2022-09-07T02:05:25.817Z,0
2022-09-07T02:06:28.842Z,0
2022-09-07T02:08:03.774Z,0
2022-09-07T02:09:06.841Z,0
2022-09-07T02:10:09.917Z,0
2022-09-07T02:11:44.890Z,0
2022-09-07T02:12:47.905Z,0
2022-09-07T02:13:50.904Z,0
2022-09-07T02:15:25.589Z,0
2022-09-07T02:16:29.351Z,0
2022-09-07T02:17:32.262Z,0
2022-09-07T02:19:07.221Z,0
2022-09-07T02:20:09.939Z,0
2022-09-07T02:21:13.083Z,0
2022-09-07T02:22:48.072Z,0
2022-09-07T02:23:51.001Z,0
2022-09-07T02:24:53.962Z,0
2022-09-07T02:26:29.067Z,0
2022-09-07T02:27:31.834Z,0
2022-09-07T02:28:35.001Z,0
2022-09-07T02:30:09.712Z,0
2022-09-07T02:31:13.239Z,0
2022-09-07T02:32:16.297Z,0
2022-09-07T02:33:51.095Z,0
2022-09-07T02:34:53.987Z,0
2022-09-07T02:35:56.998Z,0
2022-09-07T02:37:31.804Z,0
2022-09-07T02:38:34.746Z,0
2022-09-07T02:39:37.786Z,0
2022-09-07T02:41:12.762Z,0
2022-09-07T02:42:15.929Z,0
2022-09-07T02:43:18.844Z,0
2022-09-07T02:44:53.877Z,0
2022-09-07T02:45:57.027Z,0
2022-09-07T02:47:00.243Z,0
2022-09-07T02:48:35.627Z,0
2022-09-07T02:49:38.689Z,0
2022-09-07T02:50:41.653Z,0
2022-09-07T02:52:16.421Z,0
2022-09-07T02:53:19.266Z,0
2022-09-07T02:54:22.233Z,0
2022-09-07T02:55:57.246Z,0
2022-09-07T02:57:00.091Z,0
2022-09-07T02:58:03.060Z,0
2022-09-07T02:59:37.818Z,0
2022-09-07T03:00:40.414Z,0
2022-09-07T03:01:44.187Z,0
2022-09-07T03:02:47.657Z,0
2022-09-07T03:04:22.631Z,0
2022-09-07T03:05:25.692Z,0
2022-09-07T03:06:28.567Z,0
2022-09-07T03:08:07.109Z,0
2022-09-07T03:09:10.094Z,0
2022-09-07T03:10:13.098Z,0
2022-09-07T03:11:48.003Z,0
2022-09-07T03:12:51.115Z,0
2022-09-07T03:13:54.105Z,0
2022-09-07T03:15:29.112Z,0
2022-09-07T03:16:32.403Z,0
2022-09-07T03:17:35.274Z,0
2022-09-07T03:19:10.201Z,0
2022-09-07T03:20:13.123Z,0
2022-09-07T03:21:16.089Z,0
2022-09-07T03:22:51.102Z,0
2022-09-07T03:23:57.592Z,0
2022-09-07T03:25:00.462Z,0
2022-09-07T03:26:35.277Z,0
2022-09-07T03:27:38.089Z,0
2022-09-07T03:28:41.545Z,0
2022-09-07T03:30:16.445Z,0
2022-09-07T03:31:20.338Z,0
2022-09-07T03:32:23.380Z,0
2022-09-07T03:33:58.200Z,0
2022-09-07T03:35:01.323Z,0
2022-09-07T03:36:04.440Z,0
2022-09-07T03:37:39.452Z,0
2022-09-07T03:38:42.502Z,0
2022-09-07T03:39:46.097Z,0
2022-09-07T03:41:21.151Z,0
2022-09-07T03:42:24.302Z,0
2022-09-07T03:43:27.367Z,0
2022-09-07T03:45:02.127Z,0
2022-09-07T03:46:05.792Z,0
2022-09-07T03:47:08.536Z,0
2022-09-07T03:48:44.070Z,0
2022-09-07T03:49:47.119Z,0
2022-09-07T03:50:50.363Z,0
2022-09-07T03:52:25.239Z,0
2022-09-07T03:53:28.112Z,0
2022-09-07T03:54:31.156Z,0
2022-09-07T03:56:06.243Z,0
2022-09-07T03:57:09.096Z,0
2022-09-07T03:58:12.073Z,0
2022-09-07T03:59:47.191Z,0
2022-09-07T04:00:40.268Z,0
2022-09-07T04:01:44.171Z,0
2022-09-07T04:02:47.594Z,0
2022-09-07T04:04:27.048Z,0
2022-09-07T04:06:08.993Z,0
2022-09-07T04:07:11.895Z,0
2022-09-07T04:08:14.976Z,0
2022-09-07T04:09:50.131Z,0
2022-09-07T04:10:53.126Z,0
2022-09-07T04:11:56.148Z,0
2022-09-07T04:13:31.088Z,0
2022-09-07T04:14:33.927Z,0
2022-09-07T04:15:37.075Z,0
2022-09-07T04:17:12.647Z,0
2022-09-07T04:18:15.694Z,0
2022-09-07T04:19:18.740Z,0
2022-09-07T04:20:53.683Z,0
2022-09-07T04:21:57.119Z,0
2022-09-07T04:23:05.303Z,0
2022-09-07T04:24:40.117Z,0
2022-09-07T04:25:43.000Z,0
2022-09-07T04:26:45.906Z,0
2022-09-07T04:28:20.866Z,0
2022-09-07T04:29:23.961Z,0
2022-09-07T04:30:26.938Z,0
2022-09-07T04:32:02.471Z,0
2022-09-07T04:33:05.378Z,0
2022-09-07T04:34:08.510Z,0
2022-09-07T04:35:43.384Z,0
2022-09-07T04:36:46.484Z,0
2022-09-07T04:37:49.391Z,0
2022-09-07T04:39:24.259Z,0
2022-09-07T04:40:27.790Z,0
2022-09-07T04:41:30.646Z,0
2022-09-07T04:43:05.579Z,0
2022-09-07T04:44:08.607Z,0
2022-09-07T04:45:11.583Z,0
2022-09-07T04:46:47.075Z,0
2022-09-07T04:47:49.958Z,0
2022-09-07T04:48:53.129Z,0
2022-09-07T04:50:28.203Z,0
2022-09-07T04:51:34.161Z,0
2022-09-07T04:52:37.242Z,0
2022-09-07T04:54:12.191Z,0
2022-09-07T04:55:15.274Z,0
2022-09-07T04:56:22.596Z,0
2022-09-07T04:57:57.811Z,0
2022-09-07T04:59:00.771Z,0
2022-09-07T05:00:40.617Z,0
2022-09-07T05:01:44.261Z,0
2022-09-07T05:02:47.915Z,0
2022-09-07T05:04:22.871Z,0
2022-09-07T05:05:31.103Z,0
2022-09-07T05:06:34.214Z,0
2022-09-07T05:08:09.162Z,0
2022-09-07T05:09:12.109Z,0
2022-09-07T05:10:14.995Z,0
2022-09-07T05:11:56.792Z,0
2022-09-07T05:12:59.909Z,0
2022-09-07T05:14:02.997Z,0
2022-09-07T05:15:37.558Z,0
2022-09-07T05:16:41.190Z,0
2022-09-07T05:17:44.062Z,0
2022-09-07T05:19:18.916Z,0
2022-09-07T05:20:25.993Z,0
2022-09-07T05:21:28.948Z,0
2022-09-07T05:23:04.026Z,0
2022-09-07T05:24:06.920Z,0
2022-09-07T05:25:09.766Z,0
2022-09-07T05:26:44.793Z,0
2022-09-07T05:27:47.569Z,0
2022-09-07T05:28:51.036Z,0
2022-09-07T05:32:17.049Z,0
2022-09-07T05:33:20.026Z,0
2022-09-07T05:34:57.963Z,0
2022-09-07T05:36:32.958Z,0
2022-09-07T05:37:36.016Z,0
2022-09-07T05:38:39.312Z,0
2022-09-07T05:40:14.679Z,0
2022-09-07T05:41:17.665Z,0
2022-09-07T05:42:20.705Z,0
2022-09-07T05:44:57.816Z,0
2022-09-07T05:46:01.332Z,0
2022-09-07T05:47:04.244Z,0
2022-09-07T05:48:38.950Z,0
2022-09-07T05:49:42.165Z,0
2022-09-07T05:50:44.968Z,0
2022-09-07T05:52:19.797Z,0
2022-09-07T05:53:22.722Z,0.435
2022-09-07T05:54:25.709Z,0
2022-09-07T05:56:35.354Z,0.435
2022-09-07T05:57:38.312Z,0
2022-09-07T05:58:41.838Z,0.435
2022-09-07T06:00:39.948Z,0.435
2022-09-07T06:01:43.173Z,0.435
2022-09-07T06:02:51.327Z,0
2022-09-07T06:04:27.088Z,0
2022-09-07T06:05:30.315Z,0
2022-09-07T06:06:33.485Z,0
2022-09-07T06:08:34.756Z,0
2022-09-07T06:10:46.189Z,0
2022-09-07T06:11:49.046Z,0
2022-09-07T06:13:23.710Z,0
2022-09-07T06:14:26.808Z,0
2022-09-07T06:15:29.828Z,0
2022-09-07T06:17:05.011Z,0
2022-09-07T06:18:07.869Z,0.435
2022-09-07T06:19:10.629Z,0.435
2022-09-07T06:20:45.386Z,0.435
2022-09-07T06:21:48.257Z,0.435
2022-09-07T06:22:53.919Z,0.435
2022-09-07T06:24:28.767Z,0.585
2022-09-07T06:25:31.591Z,0.435
2022-09-07T06:26:34.691Z,0.435
2022-09-07T06:28:09.362Z,0.435
2022-09-07T06:29:20.594Z,0.435
2022-09-07T06:30:23.602Z,0.435
2022-09-07T06:33:03.026Z,0.435
2022-09-07T06:34:06.001Z,0.435
2022-09-07T06:35:08.968Z,0.435
2022-09-07T06:36:43.891Z,0.435
2022-09-07T06:37:46.661Z,0.435
2022-09-07T06:38:54.398Z,0.435
2022-09-07T06:40:29.779Z,0.435
2022-09-07T06:42:23.484Z,0.435
2022-09-07T06:43:26.235Z,0
2022-09-07T06:45:00.839Z,0.435
2022-09-07T06:47:05.361Z,0.435
2022-09-07T06:48:08.154Z,0.435
2022-09-07T06:49:47.627Z,0.435
2022-09-07T06:50:50.540Z,0.585
2022-09-07T06:51:53.397Z,0.585
2022-09-07T06:55:01.792Z,0.435
2022-09-07T06:56:04.924Z,0.435
2022-09-07T06:57:07.962Z,0.435
2022-09-07T06:58:47.982Z,0.435
2022-09-07T06:59:51.053Z,0.435
2022-09-07T07:00:40.936Z,0.435
2022-09-07T07:01:44.217Z,0.435
2022-09-07T07:02:46.867Z,0.585
2022-09-07T07:04:21.823Z,0.435
2022-09-07T07:05:24.686Z,0.585
2022-09-07T07:06:27.760Z,0.585
2022-09-07T07:08:02.774Z,0.585
2022-09-07T07:09:05.553Z,0.885
2022-09-07T07:10:08.531Z,1.02
2022-09-07T07:11:43.216Z,1.17
2022-09-07T07:12:47.329Z,1.17
2022-09-07T07:13:49.801Z,1.32
2022-09-07T07:15:24.582Z,1.32
2022-09-07T07:16:28.162Z,1.17
2022-09-07T07:17:31.183Z,1.17
2022-09-07T07:19:29.491Z,1.32
2022-09-07T07:20:32.517Z,1.32
2022-09-07T07:22:46.161Z,1.32
2022-09-07T07:24:25.196Z,1.32
2022-09-07T07:25:28.128Z,1.32
2022-09-07T07:26:31.058Z,1.32
2022-09-07T07:29:04.076Z,1.47
2022-09-07T07:30:07.348Z,1.47
2022-09-07T07:31:16.232Z,1.32
2022-09-07T07:32:51.068Z,1.47
2022-09-07T07:34:06.857Z,1.32
2022-09-07T07:35:10.029Z,1.47
2022-09-07T07:36:45.147Z,1.47
2022-09-07T07:37:51.329Z,1.32
2022-09-07T07:40:39.794Z,1.47
2022-09-07T07:43:13.523Z,1.32
2022-09-07T07:44:17.484Z,1.32
2022-09-07T07:46:24.128Z,1.32
2022-09-07T07:47:59.734Z,1.47
2022-09-07T07:49:02.945Z,1.47
2022-09-07T07:50:43.083Z,1.32
2022-09-07T07:53:56.615Z,1.32
2022-09-07T07:55:00.013Z,1.47
2022-09-07T07:56:12.789Z,1.47
2022-09-07T07:57:47.935Z,1.905
2022-09-07T07:58:51.024Z,2.19
2022-09-07T07:59:54.257Z,2.34
2022-09-07T08:01:12.252Z,2.34
2022-09-07T08:02:17.389Z,1.755
2022-09-07T08:03:20.343Z,1.755
2022-09-07T08:04:55.215Z,2.19
2022-09-07T08:05:58.358Z,2.055
2022-09-07T08:07:04.474Z,2.64
2022-09-07T08:08:43.525Z,2.19
2022-09-07T08:09:46.863Z,2.055
2022-09-07T08:10:49.658Z,2.055
2022-09-07T08:12:29.099Z,2.19
2022-09-07T08:13:33.081Z,2.79
2022-09-07T08:14:36.100Z,2.49
2022-09-07T08:16:11.419Z,2.34
2022-09-07T08:17:14.463Z,2.19
2022-09-07T08:18:17.567Z,2.055
2022-09-07T08:19:55.637Z,1.905
2022-09-07T08:20:58.649Z,1.905
2022-09-07T08:22:01.783Z,1.905
2022-09-07T08:23:43.015Z,2.34
2022-09-07T08:24:45.901Z,2.055
2022-09-07T08:25:48.785Z,2.055
2022-09-07T08:27:23.908Z,2.055
2022-09-07T08:28:26.960Z,2.055
2022-09-07T08:29:33.476Z,1.905
2022-09-07T08:31:09.747Z,2.055
2022-09-07T08:32:13.364Z,2.055
2022-09-07T08:33:16.382Z,1.905
2022-09-07T08:34:51.224Z,2.055
2022-09-07T08:35:54.145Z,2.19
2022-09-07T08:36:57.371Z,2.34
2022-09-07T08:38:38.042Z,3.075
2022-09-07T08:39:41.354Z,2.49
2022-09-07T08:40:44.319Z,2.925
2022-09-07T08:42:19.335Z,2.64
2022-09-07T08:43:22.334Z,2.79
2022-09-07T08:44:25.723Z,2.64
2022-09-07T08:46:00.783Z,2.79
2022-09-07T08:47:04.687Z,2.49
2022-09-07T08:48:07.807Z,2.79
2022-09-07T08:49:42.721Z,2.79
2022-09-07T08:50:45.669Z,2.79
2022-09-07T08:51:52.605Z,3.075
2022-09-07T08:53:27.267Z,2.925
2022-09-07T08:54:30.156Z,2.925
2022-09-07T08:55:33.154Z,3.075
2022-09-07T08:57:43.210Z,3.075
2022-09-07T08:59:15.684Z,3.51
2022-09-07T09:00:40.175Z,3.81
2022-09-07T09:06:41.125Z,3.66
2022-09-07T09:08:16.334Z,3.66
2022-09-07T09:09:19.280Z,4.095
2022-09-07T09:10:22.236Z,3.81
2022-09-07T09:11:57.307Z,4.095
2022-09-07T09:13:05.818Z,3.96
2022-09-07T09:14:08.778Z,3.225
2022-09-07T09:15:44.750Z,2.79
2022-09-07T09:16:48.721Z,2.79
2022-09-07T09:17:52.182Z,2.925
2022-09-07T09:19:29.021Z,2.925
2022-09-07T09:20:32.204Z,3.81
2022-09-07T09:21:35.059Z,3.66
2022-09-07T09:23:09.920Z,3.81
2022-09-07T09:24:12.972Z,3.51
2022-09-07T09:25:16.043Z,3.075
2022-09-07T09:27:54.004Z,2.49
2022-09-07T09:29:01.631Z,2.64
2022-09-07T09:30:36.793Z,2.34
2022-09-07T09:31:40.569Z,2.49
2022-09-07T09:32:43.787Z,2.49
2022-09-07T09:34:19.144Z,2.49
2022-09-07T09:35:23.405Z,3.075
2022-09-07T09:36:26.360Z,2.79
2022-09-07T09:38:01.286Z,2.925
2022-09-07T09:39:04.356Z,3.075
2022-09-07T09:40:14.784Z,2.925
2022-09-07T09:41:49.692Z,2.925
2022-09-07T09:42:52.900Z,2.925
2022-09-07T09:43:55.714Z,2.925
2022-09-07T09:45:30.592Z,2.925
2022-09-07T09:46:42.268Z,2.925
2022-09-07T09:48:00.978Z,3.075
2022-09-07T09:49:36.626Z,2.925
2022-09-07T09:53:03.388Z,2.64
2022-09-07T09:54:06.574Z,3.66
2022-09-07T09:56:03.404Z,2.49
2022-09-07T09:57:06.659Z,3.225
2022-09-07T10:01:29.322Z,2.925
2022-09-07T10:04:30.532Z,3.96
2022-09-07T10:05:33.533Z,2.925
2022-09-07T10:07:08.364Z,2.49
2022-09-07T10:08:11.077Z,2.925
2022-09-07T10:09:14.160Z,3.96
2022-09-07T10:10:52.571Z,4.095
2022-09-07T10:12:33.471Z,4.095
2022-09-07T10:13:36.500Z,2.925
2022-09-07T10:15:11.304Z,2.925
2022-09-07T10:16:15.148Z,3.81
2022-09-07T10:17:19.220Z,3.81
2022-09-07T10:18:54.251Z,4.095
2022-09-07T10:19:58.336Z,4.095
2022-09-07T10:21:01.413Z,4.095
2022-09-07T10:22:36.623Z,3.96
2022-09-07T10:23:39.670Z,2.34
2022-09-07T10:24:42.690Z,4.095
2022-09-07T10:26:17.556Z,3.96
2022-09-07T10:27:20.711Z,3.81
2022-09-07T10:28:23.996Z,3.96
2022-09-07T10:30:24.117Z,3.96
2022-09-07T10:31:32.232Z,3.96
2022-09-07T10:32:35.179Z,4.095
2022-09-07T10:34:48.503Z,4.095
2022-09-07T10:35:51.613Z,4.245
2022-09-07T10:36:54.597Z,4.245
2022-09-07T10:38:30.974Z,4.395
2022-09-07T10:39:34.492Z,4.395
2022-09-07T10:40:38.991Z,4.395
2022-09-07T10:42:14.318Z,4.395
2022-09-07T10:43:47.426Z,4.245
2022-09-07T10:44:50.597Z,3.51
2022-09-07T10:46:56.810Z,4.395
2022-09-07T10:48:00.142Z,4.095
2022-09-07T10:49:03.078Z,3.81
2022-09-07T10:50:52.338Z,4.545
2022-09-07T10:51:55.814Z,2.79
2022-09-07T10:52:58.866Z,2.64
2022-09-07T10:55:25.984Z,2.925
2022-09-07T10:56:28.877Z,4.095
2022-09-07T10:57:31.824Z,3.51
2022-09-07T11:00:07.556Z,3.66
2022-09-07T11:00:40.423Z,2.79
2022-09-07T11:01:43.748Z,2.64
2022-09-07T11:04:54.094Z,4.095
2022-09-07T11:06:05.166Z,2.925
2022-09-07T11:07:11.283Z,2.79
2022-09-07T11:09:27.890Z,2.64
2022-09-07T11:10:30.912Z,4.095
2022-09-07T11:12:12.336Z,4.095
2022-09-07T11:14:20.382Z,2.925
2022-09-07T11:15:23.378Z,2.79
2022-09-07T11:17:08.029Z,2.925
2022-09-07T11:18:43.191Z,3.225
2022-09-07T11:20:05.869Z,3.225
2022-09-07T11:21:08.881Z,2.79
2022-09-07T11:23:11.475Z,2.64
2022-09-07T11:24:14.320Z,2.64
2022-09-07T11:25:58.040Z,3.075
2022-09-07T11:27:32.865Z,4.545
2022-09-07T11:28:35.965Z,4.695
2022-09-07T11:29:58.561Z,4.83
2022-09-07T11:31:33.888Z,3.66
2022-09-07T11:32:36.819Z,4.545
2022-09-07T11:33:40.054Z,2.925
2022-09-07T11:35:39.640Z,2.925
2022-09-07T11:36:42.561Z,3.51
2022-09-07T11:37:45.689Z,3.81
2022-09-07T11:39:20.457Z,3.075
2022-09-07T11:40:24.004Z,3.225
2022-09-07T11:41:27.288Z,4.095
2022-09-07T11:43:17.067Z,4.245
2022-09-07T11:44:19.845Z,2.925
2022-09-07T11:45:23.054Z,2.79
2022-09-07T11:46:58.884Z,2.49
2022-09-07T11:48:01.851Z,2.49
2022-09-07T11:49:05.637Z,3.225
2022-09-07T11:50:40.954Z,5.715
2022-09-07T11:51:44.239Z,3.66
2022-09-07T11:52:53.517Z,3.075
2022-09-07T11:54:28.628Z,4.695
2022-09-07T11:55:31.815Z,3.225
2022-09-07T11:56:36.721Z,2.925
2022-09-07T11:58:18.023Z,5.28
2022-09-07T11:59:21.004Z,4.695
2022-09-07T12:00:39.921Z,3.075
2022-09-07T12:01:42.984Z,2.925
2022-09-07T12:03:22.534Z,2.925
2022-09-07T12:05:02.447Z,3.075
2022-09-07T12:06:05.499Z,3.075
2022-09-07T12:07:08.767Z,3.51
2022-09-07T12:08:44.182Z,2.64
2022-09-07T12:09:47.258Z,2.64
2022-09-07T12:10:50.379Z,2.49
2022-09-07T12:12:31.311Z,3.96
2022-09-07T12:13:34.548Z,3.96
2022-09-07T12:14:37.650Z,2.925
2022-09-07T12:16:13.386Z,2.19
2022-09-07T12:17:16.284Z,2.19
2022-09-07T12:18:19.193Z,2.055
2022-09-07T12:19:54.236Z,1.905
2022-09-07T12:20:57.317Z,2.055
2022-09-07T12:22:00.250Z,2.64
2022-09-07T12:23:35.431Z,2.34
2022-09-07T12:24:38.575Z,3.81
2022-09-07T12:25:41.804Z,3.225
2022-09-07T12:27:16.930Z,2.34
2022-09-07T12:28:25.494Z,2.34
2022-09-07T12:29:28.432Z,2.34
2022-09-07T12:31:03.732Z,2.49
2022-09-07T12:33:11.433Z,2.64
2022-09-07T12:34:14.254Z,2.925
2022-09-07T12:35:49.184Z,2.49
2022-09-07T12:36:52.244Z,2.19
2022-09-07T12:37:55.445Z,2.055
2022-09-07T12:39:30.978Z,1.905
2022-09-07T12:40:34.371Z,1.905
2022-09-07T12:41:37.369Z,1.755
2022-09-07T12:43:45.804Z,2.055
2022-09-07T12:44:52.036Z,2.055
2022-09-07T12:45:55.284Z,2.19
2022-09-07T12:47:30.851Z,2.055
2022-09-07T12:48:34.205Z,1.905
2022-09-07T12:49:37.280Z,2.055
2022-09-07T12:51:13.927Z,1.905
2022-09-07T12:52:44.201Z,2.055
2022-09-07T12:53:47.241Z,1.905
2022-09-07T12:56:27.820Z,1.905
2022-09-07T12:57:58.648Z,2.055
2022-09-07T12:59:01.904Z,2.19
2022-09-07T13:00:40.859Z,2.19
2022-09-07T13:01:44.997Z,2.055
2022-09-07T13:02:49.302Z,2.055
2022-09-07T13:05:04.397Z,2.055
2022-09-07T13:06:07.430Z,2.055
2022-09-07T13:07:31.518Z,2.055
2022-09-07T13:09:18.356Z,1.755
2022-09-07T13:10:21.522Z,1.755
2022-09-07T13:11:24.630Z,1.755
2022-09-07T13:14:59.901Z,2.34
2022-09-07T13:16:07.216Z,2.34
2022-09-07T13:18:25.207Z,2.49
2022-09-07T13:19:30.315Z,2.49
2022-09-07T13:20:39.656Z,2.49
2022-09-07T13:22:16.576Z,2.79
2022-09-07T13:23:19.651Z,3.225
2022-09-07T13:25:06.584Z,3.075
2022-09-07T13:26:41.925Z,3.075
2022-09-07T13:27:45.238Z,3.075
2022-09-07T13:28:48.202Z,2.64
2022-09-07T13:30:24.128Z,2.49
2022-09-07T13:31:27.976Z,2.49
2022-09-07T13:33:13.978Z,3.225
2022-09-07T13:34:49.117Z,2.19
2022-09-07T13:35:52.365Z,2.34
2022-09-07T13:36:55.569Z,2.34
2022-09-07T13:38:31.098Z,2.19
2022-09-07T13:39:34.551Z,2.19
2022-09-07T13:40:37.725Z,2.19
2022-09-07T13:42:12.700Z,2.49
2022-09-07T13:43:16.050Z,2.79
2022-09-07T13:44:23.571Z,2.925
2022-09-07T13:46:01.726Z,3.075
2022-09-07T13:47:05.040Z,2.49
2022-09-07T13:48:08.062Z,2.49
2022-09-07T13:49:43.352Z,3.075
2022-09-07T13:50:46.928Z,3.075
2022-09-07T13:51:50.100Z,3.075
2022-09-07T13:53:25.108Z,2.34
2022-09-07T13:54:28.315Z,2.34
2022-09-07T13:55:37.258Z,2.49
2022-09-07T13:57:12.628Z,2.64
2022-09-07T13:58:16.023Z,3.225
2022-09-07T13:59:19.353Z,3.225
2022-09-07T14:00:40.523Z,3.075
2022-09-07T14:01:44.025Z,3.075
2022-09-07T14:02:47.755Z,3.075
2022-09-07T14:04:22.945Z,3.075
2022-09-07T14:05:26.073Z,3.075
2022-09-07T14:06:29.144Z,3.075
2022-09-07T14:08:04.515Z,3.075
2022-09-07T14:09:08.345Z,2.925
2022-09-07T14:10:11.334Z,2.79
2022-09-07T14:11:47.120Z,2.79
2022-09-07T14:12:50.192Z,2.925
2022-09-07T14:13:53.646Z,2.79
2022-09-07T14:15:32.126Z,2.925
2022-09-07T14:16:35.553Z,2.79
2022-09-07T14:17:38.708Z,2.925
2022-09-07T14:19:14.030Z,2.79
2022-09-07T14:20:17.358Z,2.34
2022-09-07T14:21:20.386Z,2.49
2022-09-07T14:23:00.876Z,2.925
2022-09-07T14:24:04.235Z,2.925
2022-09-07T14:25:07.450Z,2.925
2022-09-07T14:27:25.959Z,2.19
2022-09-07T14:28:29.618Z,2.055
2022-09-07T14:29:32.740Z,2.19
2022-09-07T14:31:08.564Z,2.64
2022-09-07T14:32:11.931Z,2.49
2022-09-07T14:33:16.654Z,2.64
2022-09-07T14:34:55.379Z,1.905
2022-09-07T14:35:58.672Z,1.905
2022-09-07T14:37:13.498Z,1.905
2022-09-07T14:39:33.034Z,1.905
2022-09-07T14:40:36.724Z,1.905
2022-09-07T14:41:40.405Z,1.755
2022-09-07T14:43:16.599Z,2.34
2022-09-07T14:44:19.841Z,2.055
2022-09-07T14:45:24.225Z,2.49
2022-09-07T14:47:07.947Z,1.905
2022-09-07T14:48:11.271Z,2.055
2022-09-07T14:49:14.578Z,2.49
2022-09-07T14:51:30.196Z,2.64
2022-09-07T14:52:42.307Z,2.34
2022-09-07T14:54:03.645Z,2.34
2022-09-07T14:55:38.707Z,2.64
2022-09-07T14:56:41.911Z,2.64
2022-09-07T14:57:45.293Z,2.79
2022-09-07T14:59:22.880Z,2.64
2022-09-07T15:00:40.261Z,2.49
2022-09-07T15:02:07.706Z,2.34
2022-09-07T15:03:10.874Z,2.34
2022-09-07T15:04:47.693Z,2.64
2022-09-07T15:05:51.558Z,2.49
2022-09-07T15:07:25.818Z,2.64
2022-09-07T15:09:01.157Z,1.755
2022-09-07T15:10:04.591Z,1.755
2022-09-07T15:11:55.873Z,1.755
2022-09-07T15:13:47.309Z,1.47
2022-09-07T15:14:50.659Z,1.47
2022-09-07T15:15:55.618Z,1.47
2022-09-07T15:18:15.828Z,1.47
2022-09-07T15:19:18.990Z,1.32
2022-09-07T15:20:22.203Z,1.755
2022-09-07T15:21:57.328Z,1.47
2022-09-07T15:23:00.493Z,1.32
2022-09-07T15:24:03.645Z,1.32
2022-09-07T15:25:40.654Z,1.32
2022-09-07T15:27:26.550Z,1.47
2022-09-07T15:29:20.307Z,1.47
2022-09-07T15:32:08.049Z,1.47
2022-09-07T15:33:14.240Z,1.47
2022-09-07T15:34:17.465Z,1.47
2022-09-07T15:35:52.686Z,1.32
2022-09-07T15:36:59.774Z,1.47
2022-09-07T15:39:18.411Z,1.32
2022-09-07T15:41:29.892Z,1.32
2022-09-07T15:43:39.881Z,1.32
2022-09-07T15:44:50.262Z,1.32
2022-09-07T15:46:27.044Z,1.17
2022-09-07T15:48:14.571Z,1.32
2022-09-07T15:49:18.719Z,1.17
2022-09-07T15:52:04.779Z,1.17
2022-09-07T15:54:13.463Z,1.02
2022-09-07T15:55:19.262Z,0.885
2022-09-07T15:58:11.461Z,0.885
2022-09-07T15:59:14.961Z,0.885
2022-09-07T16:00:41.163Z,0.885
2022-09-07T16:03:16.609Z,0.885
2022-09-07T16:04:24.131Z,1.02
2022-09-07T16:06:13.792Z,1.02
2022-09-07T16:07:20.179Z,1.02
2022-09-07T16:08:57.478Z,1.02
2022-09-07T16:10:37.449Z,0.885
2022-09-07T16:11:50.159Z,0.885
2022-09-07T16:13:31.451Z,0.885
2022-09-07T16:15:14.295Z,0.885
2022-09-07T16:16:22.301Z,0.735
2022-09-07T16:18:05.567Z,0.885
2022-09-07T16:19:53.032Z,0.735
2022-09-07T16:21:04.461Z,0.885
2022-09-07T16:22:09.905Z,0.735
2022-09-07T16:24:23.592Z,0.735
2022-09-07T16:25:26.779Z,0.585
2022-09-07T16:26:29.904Z,0.735
2022-09-07T16:28:05.716Z,0.585
2022-09-07T16:29:09.237Z,0.585
2022-09-07T16:30:13.481Z,0.585
2022-09-07T16:32:55.246Z,0.585
2022-09-07T16:34:05.781Z,0.735
2022-09-07T16:35:08.707Z,0.735
2022-09-07T16:36:45.948Z,0.735
2022-09-07T16:38:55.605Z,0.885
2022-09-07T16:39:59.190Z,0.735
2022-09-07T16:41:37.258Z,0.735
2022-09-07T16:42:48.320Z,0.735
2022-09-07T16:43:51.793Z,0.585
2022-09-07T16:46:30.997Z,0.735
2022-09-07T16:47:34.205Z,0.585
2022-09-07T16:48:37.385Z,0.585
2022-09-07T16:50:15.025Z,0.435
2022-09-07T16:51:25.141Z,0.435
2022-09-07T16:52:28.380Z,0.435
2022-09-07T16:54:04.359Z,0.435
2022-09-07T16:55:08.270Z,0.435
2022-09-07T16:56:11.284Z,0.435
2022-09-07T16:58:59.155Z,0.435
2022-09-07T17:00:45.428Z,0.435
2022-09-07T17:01:49.124Z,0.435
2022-09-07T17:02:52.472Z,0.435
2022-09-07T17:04:33.783Z,0.435
2022-09-07T17:05:37.066Z,0.435
2022-09-07T17:06:40.066Z,0
2022-09-07T17:08:15.228Z,0
2022-09-07T17:09:18.434Z,0.435
2022-09-07T17:10:21.331Z,0
2022-09-07T17:11:56.389Z,0
2022-09-07T17:12:59.421Z,0
2022-09-07T17:14:02.484Z,0
2022-09-07T17:15:37.548Z,0
2022-09-07T17:16:41.562Z,0
2022-09-07T17:17:44.579Z,0
2022-09-07T17:19:53.778Z,0
2022-09-07T17:20:59.360Z,0
2022-09-07T17:22:03.690Z,0
2022-09-07T17:23:55.251Z,0
2022-09-07T17:25:01.040Z,0
2022-09-07T17:26:04.230Z,0
2022-09-07T17:27:46.951Z,0
2022-09-07T17:28:50.632Z,0
2022-09-07T17:29:54.841Z,0
2022-09-07T17:32:41.577Z,0
2022-09-07T17:33:45.021Z,0
2022-09-07T17:34:48.336Z,0
2022-09-07T17:36:24.377Z,0
2022-09-07T17:37:28.980Z,0
2022-09-07T17:39:44.538Z,0
2022-09-07T17:41:20.749Z,0
2022-09-07T17:42:24.055Z,0
2022-09-07T17:44:08.483Z,0
2022-09-07T17:45:56.800Z,0
2022-09-07T17:47:00.018Z,0
2022-09-07T17:48:03.093Z,0
2022-09-07T17:49:38.674Z,0
2022-09-07T17:50:42.510Z,0
2022-09-07T17:51:45.823Z,0
2022-09-07T17:53:21.428Z,0
2022-09-07T17:54:32.870Z,0
2022-09-07T17:55:35.888Z,0
2022-09-07T17:57:11.109Z,0
2022-09-07T17:58:20.614Z,0
2022-09-07T18:00:41.527Z,0
2022-09-07T18:01:45.950Z,0
2022-09-07T18:02:49.199Z,0
2022-09-07T18:04:24.362Z,0
2022-09-07T18:05:27.848Z,0
2022-09-07T18:06:30.935Z,0
2022-09-07T18:08:06.709Z,0
2022-09-07T18:09:09.714Z,0
2022-09-07T18:10:12.775Z,0
2022-09-07T18:12:50.548Z,0
2022-09-07T18:14:06.079Z,0
2022-09-07T18:15:09.388Z,0
2022-09-07T18:16:45.761Z,0
2022-09-07T18:17:49.311Z,0
2022-09-07T18:18:52.629Z,0
2022-09-07T18:20:27.657Z,0
2022-09-07T18:21:32.118Z,0
2022-09-07T18:22:35.311Z,0
2022-09-07T18:24:14.018Z,0
2022-09-07T18:25:21.669Z,0
2022-09-07T18:26:24.748Z,0
2022-09-07T18:29:40.184Z,0